Time,TemperatureF,DewpointF,PressureIn,WindDirection,WindDirectionDegrees,WindSpeedMPH,WindSpeedGustMPH,Humidity,HourlyPrecipIn,Conditions,Clouds,dailyrainin,SoftwareType,DateUTC
2013-02-12 00:12:00,51.4,39.0,29.80,North,352,1.0,-999.0,64,-99.99,,,0.00,weatherlink.com 1.10,2013-02-12 05:12:00,
2013-02-12 00:29:00,51.0,36.0,29.81,North,349,0.0,-999.0,58,-99.99,,,0.00,weatherlink.com 1.10,2013-02-12 05:29:00,
2013-02-12 00:42:00,50.4,35.0,29.82,WNW,295,7.0,-999.0,56,-99.99,,,0.00,weatherlink.com 1.10,2013-02-12 05:42:00,
2013-02-12 00:57:00,49.6,34.0,29.82,NNW,331,0.0,-999.0,55,-99.99,,,0.00,weatherlink.com 1.10,2013-02-12 05:57:00,
2013-02-12 01:12:00,48.9,34.0,29.83,NW,307,3.0,-999.0,56,-99.99,,,0.00,weatherlink.com 1.10,2013-02-12 06:12:00,
2013-02-12 01:27:00,48.3,33.0,29.83,NNE,25,0.0,-999.0,56,-99.99,,,0.00,weatherlink.com 1.10,2013-02-12 06:27:00,
2013-02-12 01:42:00,47.6,33.0,29.84,WNW,292,0.0,-999.0,57,-99.99,,,0.00,weatherlink.com 1.10,2013-02-12 06:42:00,
2013-02-12 01:57:00,46.8,33.0,29.85,WNW,292,0.0,-999.0,59,-99.99,,,0.00,weatherlink.com 1.10,2013-02-12 06:57:00,
2013-02-12 02:12:00,45.8,33.0,29.85,WNW,290,0.0,-999.0,61,-99.99,,,0.00,weatherlink.com 1.10,2013-02-12 07:12:00,
2013-02-12 02:27:00,45.8,32.0,29.85,WSW,239,0.0,-999.0,60,-99.99,,,0.00,weatherlink.com 1.10,2013-02-12 07:27:00,
2013-02-12 02:42:00,45.2,32.0,29.86,West,273,1.0,-999.0,60,-99.99,,,0.00,weatherlink.com 1.10,2013-02-12 07:42:00,
2013-02-12 02:57:00,45.2,31.0,29.85,West,278,1.0,-999.0,59,-99.99,,,0.00,weatherlink.com 1.10,2013-02-12 07:57:00,
2013-02-12 03:12:00,45.5,31.0,29.85,WNW,302,1.0,-999.0,57,-99.99,,,0.00,weatherlink.com 1.10,2013-02-12 08:12:00,
2013-02-12 03:27:00,46.0,30.0,29.85,WNW,283,2.0,-999.0,55,-99.99,,,0.00,weatherlink.com 1.10,2013-02-12 08:27:00,
2013-02-12 03:42:00,46.5,29.0,29.85,WNW,300,0.0,-999.0,51,-99.99,,,0.00,weatherlink.com 1.10,2013-02-12 08:42:00,
2013-02-12 03:57:00,46.7,29.0,29.85,NNW,328,11.0,-999.0,51,-99.99,,,0.00,weatherlink.com 1.10,2013-02-12 08:57:00,
2013-02-12 04:12:00,46.7,29.0,29.85,NNW,335,4.0,-999.0,50,-99.99,,,0.00,weatherlink.com 1.10,2013-02-12 09:12:00,
2013-02-12 04:27:00,46.4,28.0,29.85,NW,311,0.0,-999.0,50,-99.99,,,0.00,weatherlink.com 1.10,2013-02-12 09:27:00,
2013-02-12 04:42:00,46.1,29.0,29.86,NW,318,2.0,-999.0,51,-99.99,,,0.00,weatherlink.com 1.10,2013-02-12 09:42:00,
2013-02-12 04:57:00,46.0,29.0,29.87,NW,326,2.0,-999.0,51,-99.99,,,0.00,weatherlink.com 1.10,2013-02-12 09:57:00,
2013-02-12 05:12:00,46.1,29.0,29.88,NNW,333,5.0,-999.0,52,-99.99,,,0.00,weatherlink.com 1.10,2013-02-12 10:12:00,
2013-02-12 05:27:00,46.1,29.0,29.88,WNW,288,0.0,-999.0,52,-99.99,,,0.00,weatherlink.com 1.10,2013-02-12 10:27:00,
2013-02-12 05:42:00,45.8,29.0,29.89,NNE,12,2.0,-999.0,52,-99.99,,,0.01,weatherlink.com 1.10,2013-02-12 10:42:00,
2013-02-12 05:57:00,45.4,29.0,29.89,West,274,0.0,-999.0,52,-99.99,,,0.01,weatherlink.com 1.10,2013-02-12 10:57:00,
2013-02-12 06:27:00,44.5,28.0,29.90,NW,309,2.0,-999.0,53,-99.99,,,0.01,weatherlink.com 1.10,2013-02-12 11:27:00,
2013-02-12 06:42:00,44.5,28.0,29.91,NW,309,2.0,-999.0,52,-99.99,,,0.01,weatherlink.com 1.10,2013-02-12 11:42:00,
2013-02-12 06:57:00,44.6,27.0,29.91,WNW,284,2.0,-999.0,51,-99.99,,,0.01,weatherlink.com 1.10,2013-02-12 11:57:00,
2013-02-12 07:12:00,44.6,27.0,29.92,West,278,2.0,-999.0,51,-99.99,,,0.01,weatherlink.com 1.10,2013-02-12 12:12:00,
2013-02-12 07:27:00,44.6,27.0,29.93,WNW,286,3.0,-999.0,51,-99.99,,,0.01,weatherlink.com 1.10,2013-02-12 12:27:00,
2013-02-12 07:43:00,44.8,27.0,29.94,WNW,302,0.0,-999.0,51,-99.99,,,0.01,weatherlink.com 1.10,2013-02-12 12:43:00,
2013-02-12 07:58:00,45.8,28.0,29.94,NW,315,0.0,-999.0,50,-99.99,,,0.01,weatherlink.com 1.10,2013-02-12 12:58:00,
2013-02-12 08:12:00,46.2,28.0,29.95,NW,315,4.0,-999.0,49,-99.99,,,0.01,weatherlink.com 1.10,2013-02-12 13:12:00,
2013-02-12 08:27:00,46.5,28.0,29.96,West,271,14.0,-999.0,49,-99.99,,,0.01,weatherlink.com 1.10,2013-02-12 13:27:00,
2013-02-12 08:42:00,46.1,26.0,29.96,West,277,9.0,-999.0,45,-99.99,,,0.01,weatherlink.com 1.10,2013-02-12 13:42:00,
2013-02-12 08:57:00,46.2,27.0,29.96,WNW,292,5.0,-999.0,48,-99.99,,,0.01,weatherlink.com 1.10,2013-02-12 13:57:00,
2013-02-12 09:13:00,47.4,28.0,29.96,WNW,288,0.0,-999.0,47,-99.99,,,0.01,weatherlink.com 1.10,2013-02-12 14:13:00,
2013-02-12 09:28:00,47.9,28.0,29.96,SW,221,10.0,-999.0,47,-99.99,,,0.01,weatherlink.com 1.10,2013-02-12 14:28:00,
2013-02-12 09:42:00,48.5,27.0,29.97,WNW,293,4.0,-999.0,44,-99.99,,,0.01,weatherlink.com 1.10,2013-02-12 14:42:00,
2013-02-12 09:57:00,48.8,29.0,29.97,West,281,11.0,-999.0,46,-99.99,,,0.01,weatherlink.com 1.10,2013-02-12 14:57:00,
2013-02-12 10:12:00,49.5,29.0,29.98,NW,321,6.0,-999.0,45,-99.99,,,0.01,weatherlink.com 1.10,2013-02-12 15:12:00,
2013-02-12 10:28:00,49.9,28.0,29.98,NW,316,3.0,-999.0,43,-99.99,,,0.01,weatherlink.com 1.10,2013-02-12 15:28:00,
2013-02-12 10:42:00,50.8,28.0,29.99,NNW,327,5.0,-999.0,42,-99.99,,,0.01,weatherlink.com 1.10,2013-02-12 15:42:00,
2013-02-12 10:57:00,50.5,27.0,29.98,NW,314,9.0,-999.0,41,-99.99,,,0.01,weatherlink.com 1.10,2013-02-12 15:57:00,
2013-02-12 11:12:00,51.1,28.0,29.99,WNW,301,3.0,-999.0,41,-99.99,,,0.01,weatherlink.com 1.10,2013-02-12 16:12:00,
2013-02-12 11:27:00,51.0,28.0,29.99,WNW,282,10.0,-999.0,41,-99.99,,,0.01,weatherlink.com 1.10,2013-02-12 16:27:00,
2013-02-12 11:42:00,52.0,29.0,29.98,West,272,9.0,-999.0,42,-99.99,,,0.01,weatherlink.com 1.10,2013-02-12 16:42:00,
2013-02-12 11:57:00,51.9,27.0,29.98,SW,228,12.0,-999.0,39,-99.99,,,0.01,weatherlink.com 1.10,2013-02-12 16:57:00,
2013-02-12 12:12:00,52.3,28.0,29.98,West,264,9.0,-999.0,40,-99.99,,,0.01,weatherlink.com 1.10,2013-02-12 17:12:00,
2013-02-12 12:27:00,52.3,27.0,29.97,WNW,294,16.0,-999.0,38,-99.99,,,0.01,weatherlink.com 1.10,2013-02-12 17:27:00,
2013-02-12 12:42:00,52.6,28.0,29.97,NNW,338,4.0,-999.0,39,-99.99,,,0.01,weatherlink.com 1.10,2013-02-12 17:42:00,
2013-02-12 12:57:00,52.9,27.0,29.96,NW,324,5.0,-999.0,37,-99.99,,,0.01,weatherlink.com 1.10,2013-02-12 17:57:00,
2013-02-12 13:13:00,53.6,28.0,29.95,WNW,292,4.0,-999.0,37,-99.99,,,0.01,weatherlink.com 1.10,2013-02-12 18:13:00,
2013-02-12 13:27:00,53.6,28.0,29.95,WNW,288,0.0,-999.0,37,-99.99,,,0.01,weatherlink.com 1.10,2013-02-12 18:27:00,
2013-02-12 13:42:00,53.2,27.0,29.94,NNW,333,0.0,-999.0,36,-99.99,,,0.01,weatherlink.com 1.10,2013-02-12 18:42:00,
2013-02-12 13:57:00,53.5,27.0,29.93,West,268,3.0,-999.0,36,-99.99,,,0.01,weatherlink.com 1.10,2013-02-12 18:57:00,
2013-02-12 14:12:00,54.4,28.0,29.92,West,274,4.0,-999.0,36,-99.99,,,0.01,weatherlink.com 1.10,2013-02-12 19:12:00,
2013-02-12 14:28:00,54.1,27.0,29.91,NNW,345,1.0,-999.0,35,-99.99,,,0.01,weatherlink.com 1.10,2013-02-12 19:28:00,
2013-02-12 14:42:00,54.2,27.0,29.90,NNW,338,5.0,-999.0,35,-99.99,,,0.01,weatherlink.com 1.10,2013-02-12 19:42:00,
2013-02-12 14:57:00,54.5,26.0,29.87,North,354,2.0,-999.0,34,-99.99,,,0.01,weatherlink.com 1.10,2013-02-12 19:57:00,
2013-02-12 15:12:00,54.8,27.0,29.86,North,358,2.0,-999.0,34,-99.99,,,0.01,weatherlink.com 1.10,2013-02-12 20:12:00,
2013-02-12 15:28:00,55.1,26.0,29.90,NW,305,2.0,-999.0,33,-99.99,,,0.01,weatherlink.com 1.10,2013-02-12 20:28:00,
2013-02-12 15:42:00,55.3,27.0,29.91,West,271,7.0,-999.0,34,-99.99,,,0.01,weatherlink.com 1.10,2013-02-12 20:42:00,
2013-02-12 15:57:00,55.6,27.0,29.94,SSW,200,0.0,-999.0,34,-99.99,,,0.01,weatherlink.com 1.10,2013-02-12 20:57:00,
2013-02-12 16:12:00,55.7,28.0,29.93,SW,230,2.0,-999.0,34,-99.99,,,0.01,weatherlink.com 1.10,2013-02-12 21:12:00,
2013-02-12 16:27:00,55.1,26.0,29.94,WNW,288,2.0,-999.0,33,-99.99,,,0.01,weatherlink.com 1.10,2013-02-12 21:27:00,
2013-02-12 16:42:00,55.0,28.0,29.93,SW,233,0.0,-999.0,35,-99.99,,,0.01,weatherlink.com 1.10,2013-02-12 21:42:00,
2013-02-12 16:57:00,51.0,30.0,29.93,ESE,120,6.0,-999.0,45,-99.99,,,0.01,weatherlink.com 1.10,2013-02-12 21:57:00,
2013-02-12 17:12:00,50.1,30.0,29.92,SE,129,1.0,-999.0,46,-99.99,,,0.01,weatherlink.com 1.10,2013-02-12 22:12:00,
2013-02-12 17:27:00,48.3,30.0,29.93,SSE,165,3.0,-999.0,49,-99.99,,,0.01,weatherlink.com 1.10,2013-02-12 22:27:00,
2013-02-12 17:42:00,47.1,30.0,29.94,SSE,163,0.0,-999.0,51,-99.99,,,0.01,weatherlink.com 1.10,2013-02-12 22:42:00,
2013-02-12 17:57:00,45.7,30.0,29.95,SSE,163,0.0,-999.0,55,-99.99,,,0.01,weatherlink.com 1.10,2013-02-12 22:57:00,
2013-02-12 18:12:00,44.8,30.0,29.96,SSE,162,0.0,-999.0,56,-99.99,,,0.01,weatherlink.com 1.10,2013-02-12 23:12:00,
2013-02-12 18:27:00,44.2,30.0,29.95,SSE,162,0.0,-999.0,58,-99.99,,,0.01,weatherlink.com 1.10,2013-02-12 23:27:00,
2013-02-12 18:42:00,43.3,30.0,29.95,SSE,163,0.0,-999.0,61,-99.99,,,0.01,weatherlink.com 1.10,2013-02-12 23:42:00,
2013-02-12 18:57:00,42.9,31.0,29.96,SSE,163,0.0,-999.0,62,-99.99,,,0.01,weatherlink.com 1.10,2013-02-12 23:57:00,
2013-02-12 19:12:00,42.3,31.0,29.96,SSE,162,0.0,-999.0,65,-99.99,,,0.01,weatherlink.com 1.10,2013-02-13 00:12:00,
2013-02-12 19:27:00,41.3,32.0,29.96,SSE,163,0.0,-999.0,69,-99.99,,,0.01,weatherlink.com 1.10,2013-02-13 00:27:00,
2013-02-12 19:43:00,40.9,32.0,29.96,SSE,162,0.0,-999.0,70,-99.99,,,0.01,weatherlink.com 1.10,2013-02-13 00:43:00,
2013-02-12 19:57:00,40.6,32.0,29.95,SSE,162,0.0,-999.0,72,-99.99,,,0.01,weatherlink.com 1.10,2013-02-13 00:57:00,
2013-02-12 20:12:00,39.9,32.0,29.94,SSE,162,0.0,-999.0,74,-99.99,,,0.01,weatherlink.com 1.10,2013-02-13 01:12:00,
2013-02-12 20:27:00,39.9,33.0,29.94,SSE,163,0.0,-999.0,75,-99.99,,,0.01,weatherlink.com 1.10,2013-02-13 01:27:00,
2013-02-12 20:42:00,39.1,32.0,29.94,SSE,163,0.0,-999.0,76,-99.99,,,0.01,weatherlink.com 1.10,2013-02-13 01:42:00,
2013-02-12 20:58:00,40.5,32.0,29.94,ENE,58,4.0,-999.0,72,-99.99,,,0.01,weatherlink.com 1.10,2013-02-13 01:58:00,
2013-02-12 21:12:00,41.5,31.0,29.94,NE,51,0.0,-999.0,67,-99.99,,,0.01,weatherlink.com 1.10,2013-02-13 02:12:00,
2013-02-12 21:27:00,41.3,30.0,29.95,ENE,67,3.0,-999.0,65,-99.99,,,0.01,weatherlink.com 1.10,2013-02-13 02:27:00,
2013-02-12 21:42:00,40.8,30.0,29.95,NE,38,0.0,-999.0,66,-99.99,,,0.01,weatherlink.com 1.10,2013-02-13 02:42:00,
2013-02-12 21:57:00,40.2,30.0,29.96,NE,47,0.0,-999.0,67,-99.99,,,0.01,weatherlink.com 1.10,2013-02-13 02:57:00,
2013-02-12 22:13:00,39.9,30.0,29.96,NE,47,0.0,-999.0,68,-99.99,,,0.01,weatherlink.com 1.10,2013-02-13 03:13:00,
2013-02-12 22:28:00,39.3,29.0,29.97,NE,47,0.0,-999.0,68,-99.99,,,0.01,weatherlink.com 1.10,2013-02-13 03:28:00,
2013-02-12 22:42:00,38.9,30.0,29.96,NE,47,0.0,-999.0,70,-99.99,,,0.01,weatherlink.com 1.10,2013-02-13 03:42:00,
2013-02-12 22:58:00,38.5,30.0,29.96,NE,47,0.0,-999.0,71,-99.99,,,0.01,weatherlink.com 1.10,2013-02-13 03:58:00,
2013-02-12 23:12:00,37.9,30.0,29.95,NE,47,0.0,-999.0,73,-99.99,,,0.01,weatherlink.com 1.10,2013-02-13 04:12:00,
2013-02-12 23:27:00,37.9,30.0,29.94,NE,47,0.0,-999.0,74,-99.99,,,0.01,weatherlink.com 1.10,2013-02-13 04:27:00,
2013-02-12 23:43:00,38.0,30.0,29.95,NE,47,0.0,-999.0,73,-99.99,,,0.01,weatherlink.com 1.10,2013-02-13 04:43:00,
2013-02-12 23:58:00,38.0,30.0,29.95,NE,47,0.0,-999.0,73,-99.99,,,0.01,weatherlink.com 1.10,2013-02-13 04:58:00,